sensor_id;sensor_type;location;lat;lon;timestamp;pressure;altitude;pressure_sealevel;temperature;humidity
76732;BME280;65656;51.130;13.658;2023-04-06T00:02:29;99828.38;;;-1.63;91.43
76732;BME280;65656;51.130;13.658;2023-04-06T00:06:31;99832.09;;;-1.56;90.95
76732;BME280;65656;51.130;13.658;2023-04-06T00:10:34;99833.81;;;-1.55;91.21
76732;BME280;65656;51.130;13.658;2023-04-06T00:14:35;99830.13;;;-1.54;90.54
76732;BME280;65656;51.130;13.658;2023-04-06T00:18:37;99831.81;;;-1.53;90.01
76732;BME280;65656;51.130;13.658;2023-04-06T00:22:38;99828.09;;;-1.52;90.23
76732;BME280;65656;51.130;13.658;2023-04-06T00:26:41;99816.53;;;-1.53;89.83
76732;BME280;65656;51.130;13.658;2023-04-06T00:30:42;99819.56;;;-1.48;91.13
76732;BME280;65656;51.130;13.658;2023-04-06T00:34:44;99818.03;;;-1.50;90.98
76732;BME280;65656;51.130;13.658;2023-04-06T00:38:45;99809.13;;;-1.51;90.60
76732;BME280;65656;51.130;13.658;2023-04-06T00:42:48;99813.66;;;-1.51;90.83
76732;BME280;65656;51.130;13.658;2023-04-06T00:46:50;99810.31;;;-1.53;91.01
76732;BME280;65656;51.130;13.658;2023-04-06T00:50:51;99814.19;;;-1.48;92.16
76732;BME280;65656;51.130;13.658;2023-04-06T00:54:53;99815.03;;;-1.47;91.03
76732;BME280;65656;51.130;13.658;2023-04-06T00:58:55;99808.28;;;-1.51;91.16
76732;BME280;65656;51.130;13.658;2023-04-06T01:02:57;99814.00;;;-1.54;91.63
76732;BME280;65656;51.130;13.658;2023-04-06T01:06:59;99807.88;;;-1.22;91.37
76732;BME280;65656;51.130;13.658;2023-04-06T01:11:00;99812.28;;;-0.64;89.65
76732;BME280;65656;51.130;13.658;2023-04-06T01:15:04;99806.38;;;-0.35;87.53
76732;BME280;65656;51.130;13.658;2023-04-06T01:19:10;99816.28;;;-0.19;87.42
76732;BME280;65656;51.130;13.658;2023-04-06T01:23:13;99807.50;;;-0.05;86.91
76732;BME280;65656;51.130;13.658;2023-04-06T01:27:15;99811.22;;;-0.06;86.61
76732;BME280;65656;51.130;13.658;2023-04-06T01:31:16;99812.78;;;-0.44;88.61
76732;BME280;65656;51.130;13.658;2023-04-06T01:35:18;99810.59;;;-0.73;89.44
76732;BME280;65656;51.130;13.658;2023-04-06T01:39:21;99805.38;;;-0.91;90.24
76732;BME280;65656;51.130;13.658;2023-04-06T01:43:22;99805.56;;;-1.01;91.44
76732;BME280;65656;51.130;13.658;2023-04-06T01:47:24;99799.00;;;-0.98;91.33
76732;BME280;65656;51.130;13.658;2023-04-06T01:51:25;99806.88;;;-0.97;92.01
76732;BME280;65656;51.130;13.658;2023-04-06T01:55:28;99807.41;;;-0.93;90.35
76732;BME280;65656;51.130;13.658;2023-04-06T01:59:30;99805.72;;;-0.94;91.71
76732;BME280;65656;51.130;13.658;2023-04-06T02:07:39;99800.31;;;-1.10;92.19
76732;BME280;65656;51.130;13.658;2023-04-06T02:11:42;99800.31;;;-1.10;91.77
76732;BME280;65656;51.130;13.658;2023-04-06T02:15:43;99798.13;;;-1.15;90.37
76732;BME280;65656;51.130;13.658;2023-04-06T02:19:45;99792.56;;;-1.22;91.17
76732;BME280;65656;51.130;13.658;2023-04-06T02:23:46;99791.91;;;-1.32;91.64
76732;BME280;65656;51.130;13.658;2023-04-06T02:27:49;99794.88;;;-1.35;92.07
76732;BME280;65656;51.130;13.658;2023-04-06T02:31:51;99787.66;;;-1.34;91.61
76732;BME280;65656;51.130;13.658;2023-04-06T02:35:52;99796.09;;;-1.29;92.87
76732;BME280;65656;51.130;13.658;2023-04-06T02:39:54;99790.53;;;-1.28;91.76
76732;BME280;65656;51.130;13.658;2023-04-06T02:43:57;99783.16;;;-1.18;89.71
76732;BME280;65656;51.130;13.658;2023-04-06T02:47:58;99794.91;;;-1.27;90.44
76732;BME280;65656;51.130;13.658;2023-04-06T02:52:00;99795.75;;;-1.26;90.69
76732;BME280;65656;51.130;13.658;2023-04-06T02:56:01;99789.53;;;-1.27;89.51
76732;BME280;65656;51.130;13.658;2023-04-06T03:00:05;99791.38;;;-1.35;89.43
76732;BME280;65656;51.130;13.658;2023-04-06T03:04:08;99796.25;;;-1.39;89.99
76732;BME280;65656;51.130;13.658;2023-04-06T03:08:09;99787.97;;;-1.54;90.69
76732;BME280;65656;51.130;13.658;2023-04-06T03:12:11;99788.41;;;-1.66;90.38
76732;BME280;65656;51.130;13.658;2023-04-06T03:16:14;99793.09;;;-1.77;91.55
76732;BME280;65656;51.130;13.658;2023-04-06T03:20:15;99790.38;;;-1.85;91.04
76732;BME280;65656;51.130;13.658;2023-04-06T03:24:17;99791.34;;;-1.94;91.50
76732;BME280;65656;51.130;13.658;2023-04-06T03:28:18;99796.97;;;-2.05;92.66
76732;BME280;65656;51.130;13.658;2023-04-06T03:32:21;99798.94;;;-2.15;92.77
76732;BME280;65656;51.130;13.658;2023-04-06T03:36:23;99793.25;;;-2.12;92.53
76732;BME280;65656;51.130;13.658;2023-04-06T03:40:24;99804.81;;;-1.86;92.88
76732;BME280;65656;51.130;13.658;2023-04-06T03:44:26;99808.03;;;-1.74;92.14
76732;BME280;65656;51.130;13.658;2023-04-06T03:48:29;99804.84;;;-1.78;93.24
76732;BME280;65656;51.130;13.658;2023-04-06T03:52:30;99816.81;;;-1.98;92.34
76732;BME280;65656;51.130;13.658;2023-04-06T03:56:32;99821.56;;;-2.18;93.34
76732;BME280;65656;51.130;13.658;2023-04-06T04:00:33;99818.53;;;-2.23;94.55
76732;BME280;65656;51.130;13.658;2023-04-06T04:04:36;99820.44;;;-2.15;93.87
76732;BME280;65656;51.130;13.658;2023-04-06T04:08:37;99820.50;;;-1.99;94.13
76732;BME280;65656;51.130;13.658;2023-04-06T04:12:39;99826.09;;;-1.92;92.60
76732;BME280;65656;51.130;13.658;2023-04-06T04:16:40;99816.50;;;-1.95;93.04
76732;BME280;65656;51.130;13.658;2023-04-06T04:20:43;99822.19;;;-1.98;93.09
76732;BME280;65656;51.130;13.658;2023-04-06T04:24:45;99820.94;;;-1.86;92.79
76732;BME280;65656;51.130;13.658;2023-04-06T04:28:46;99819.31;;;-1.71;91.70
76732;BME280;65656;51.130;13.658;2023-04-06T04:32:48;99818.97;;;-1.67;91.83
76732;BME280;65656;51.130;13.658;2023-04-06T04:36:51;99825.06;;;-1.57;91.11
76732;BME280;65656;51.130;13.658;2023-04-06T04:40:52;99813.31;;;-1.48;91.24
76732;BME280;65656;51.130;13.658;2023-04-06T04:44:54;99817.03;;;-1.49;90.38
76732;BME280;65656;51.130;13.658;2023-04-06T04:48:56;99824.06;;;-1.48;90.17
76732;BME280;65656;51.130;13.658;2023-04-06T04:52:58;99824.03;;;-1.56;91.54
76732;BME280;65656;51.130;13.658;2023-04-06T04:57:00;99822.03;;;-1.62;92.29
76732;BME280;65656;51.130;13.658;2023-04-06T05:01:01;99825.38;;;-1.60;92.55
76732;BME280;65656;51.130;13.658;2023-04-06T05:05:04;99826.03;;;-1.66;92.09
76732;BME280;65656;51.130;13.658;2023-04-06T05:09:07;99824.69;;;-1.71;92.46
76732;BME280;65656;51.130;13.658;2023-04-06T05:13:08;99827.06;;;-1.59;91.94
76732;BME280;65656;51.130;13.658;2023-04-06T05:17:10;99831.75;;;-1.70;92.05
76732;BME280;65656;51.130;13.658;2023-04-06T05:21:12;99836.94;;;-1.68;92.42
76732;BME280;65656;51.130;13.658;2023-04-06T05:25:15;99837.84;;;-1.51;91.68
76732;BME280;65656;51.130;13.658;2023-04-06T05:29:16;99838.63;;;-1.17;90.63
76732;BME280;65656;51.130;13.658;2023-04-06T05:33:18;99836.47;;;-1.05;89.67
76732;BME280;65656;51.130;13.658;2023-04-06T05:37:19;99848.59;;;-0.93;89.61
76732;BME280;65656;51.130;13.658;2023-04-06T05:41:23;99846.75;;;-0.76;89.98
76732;BME280;65656;51.130;13.658;2023-04-06T05:45:24;99840.88;;;-0.55;86.72
76732;BME280;65656;51.130;13.658;2023-04-06T05:49:25;99847.78;;;-0.36;85.71
76732;BME280;65656;51.130;13.658;2023-04-06T05:53:27;99835.31;;;-0.21;85.54
76732;BME280;65656;51.130;13.658;2023-04-06T05:57:30;99845.69;;;-0.02;85.19
76732;BME280;65656;51.130;13.658;2023-04-06T06:01:32;99838.41;;;0.15;84.08
76732;BME280;65656;51.130;13.658;2023-04-06T06:05:34;99837.38;;;0.33;84.38
76732;BME280;65656;51.130;13.658;2023-04-06T06:09:35;99842.31;;;0.52;81.17
76732;BME280;65656;51.130;13.658;2023-04-06T06:13:38;99846.31;;;0.64;79.38
76732;BME280;65656;51.130;13.658;2023-04-06T06:17:39;99847.16;;;0.65;77.42
76732;BME280;65656;51.130;13.658;2023-04-06T06:21:41;99847.81;;;0.67;79.40
76732;BME280;65656;51.130;13.658;2023-04-06T06:25:42;99852.19;;;0.68;82.05
76732;BME280;65656;51.130;13.658;2023-04-06T06:29:45;99849.50;;;0.68;80.90
76732;BME280;65656;51.130;13.658;2023-04-06T06:33:47;99843.41;;;0.74;81.70
76732;BME280;65656;51.130;13.658;2023-04-06T06:37:48;99849.13;;;0.79;80.99
76732;BME280;65656;51.130;13.658;2023-04-06T06:41:50;99851.41;;;0.90;80.90
76732;BME280;65656;51.130;13.658;2023-04-06T06:45:53;99848.97;;;1.03;79.62
76732;BME280;65656;51.130;13.658;2023-04-06T06:49:54;99864.75;;;1.15;80.87
76732;BME280;65656;51.130;13.658;2023-04-06T06:53:56;99855.28;;;1.19;80.16
76732;BME280;65656;51.130;13.658;2023-04-06T06:57:57;99852.41;;;1.43;81.67
76732;BME280;65656;51.130;13.658;2023-04-06T07:02:00;99848.94;;;1.57;81.05
76732;BME280;65656;51.130;13.658;2023-04-06T07:06:02;99855.91;;;2.04;75.41
76732;BME280;65656;51.130;13.658;2023-04-06T07:10:04;99853.59;;;2.16;76.08
76732;BME280;65656;51.130;13.658;2023-04-06T07:14:06;99859.66;;;2.33;77.23
76732;BME280;65656;51.130;13.658;2023-04-06T07:18:09;99852.38;;;2.48;74.94
76732;BME280;65656;51.130;13.658;2023-04-06T07:22:11;99862.84;;;2.51;75.38
76732;BME280;65656;51.130;13.658;2023-04-06T07:26:12;99855.81;;;2.57;74.88
76732;BME280;65656;51.130;13.658;2023-04-06T07:30:14;99855.56;;;2.66;76.44
76732;BME280;65656;51.130;13.658;2023-04-06T07:34:17;99851.22;;;2.87;74.31
76732;BME280;65656;51.130;13.658;2023-04-06T07:38:18;99853.31;;;3.06;74.15
76732;BME280;65656;51.130;13.658;2023-04-06T07:42:20;99846.19;;;3.20;70.92
76732;BME280;65656;51.130;13.658;2023-04-06T07:46:21;99851.78;;;3.18;70.85
76732;BME280;65656;51.130;13.658;2023-04-06T07:50:24;99849.72;;;3.42;72.12
76732;BME280;65656;51.130;13.658;2023-04-06T07:54:26;99854.09;;;3.64;70.69
76732;BME280;65656;51.130;13.658;2023-04-06T07:58:27;99858.28;;;3.88;67.02
76732;BME280;65656;51.130;13.658;2023-04-06T08:02:29;99856.16;;;4.11;65.94
76732;BME280;65656;51.130;13.658;2023-04-06T08:06:32;99852.13;;;4.29;64.56
76732;BME280;65656;51.130;13.658;2023-04-06T08:10:33;99842.88;;;4.58;64.61
76732;BME280;65656;51.130;13.658;2023-04-06T08:14:35;99849.31;;;4.91;62.34
76732;BME280;65656;51.130;13.658;2023-04-06T08:18:36;99850.41;;;5.10;60.74
76732;BME280;65656;51.130;13.658;2023-04-06T08:22:39;99847.53;;;5.25;63.30
76732;BME280;65656;51.130;13.658;2023-04-06T08:26:41;99853.44;;;5.48;58.03
76732;BME280;65656;51.130;13.658;2023-04-06T08:30:42;99845.50;;;5.53;54.42
76732;BME280;65656;51.130;13.658;2023-04-06T08:34:44;99848.44;;;5.58;52.24
76732;BME280;65656;51.130;13.658;2023-04-06T08:38:47;99855.16;;;5.69;52.60
76732;BME280;65656;51.130;13.658;2023-04-06T08:42:50;99842.19;;;5.78;54.42
76732;BME280;65656;51.130;13.658;2023-04-06T08:46:54;99846.19;;;5.95;53.42
76732;BME280;65656;51.130;13.658;2023-04-06T08:50:56;99844.72;;;5.99;50.06
76732;BME280;65656;51.130;13.658;2023-04-06T08:54:59;99840.09;;;5.80;50.64
76732;BME280;65656;51.130;13.658;2023-04-06T08:59:01;99837.16;;;5.81;52.12
76732;BME280;65656;51.130;13.658;2023-04-06T09:03:05;99841.34;;;5.84;50.49
76732;BME280;65656;51.130;13.658;2023-04-06T09:07:07;99840.91;;;6.27;49.83
76732;BME280;65656;51.130;13.658;2023-04-06T09:11:10;99839.25;;;6.06;48.89
76732;BME280;65656;51.130;13.658;2023-04-06T09:15:18;99837.59;;;6.25;46.98
76732;BME280;65656;51.130;13.658;2023-04-06T09:19:23;99837.59;;;6.25;49.55
76732;BME280;65656;51.130;13.658;2023-04-06T09:23:25;99827.06;;;6.48;45.88
76732;BME280;65656;51.130;13.658;2023-04-06T09:27:32;99832.41;;;6.75;43.02
76732;BME280;65656;51.130;13.658;2023-04-06T09:31:33;99828.63;;;6.82;42.77
76732;BME280;65656;51.130;13.658;2023-04-06T09:35:35;99829.47;;;6.76;46.93
76732;BME280;65656;51.130;13.658;2023-04-06T09:39:36;99825.25;;;6.87;45.17
76732;BME280;65656;51.130;13.658;2023-04-06T09:43:39;99816.31;;;7.11;42.46
76732;BME280;65656;51.130;13.658;2023-04-06T09:47:43;99820.47;;;7.20;38.98
76732;BME280;65656;51.130;13.658;2023-04-06T09:51:46;99812.38;;;7.39;42.71
76732;BME280;65656;51.130;13.658;2023-04-06T09:55:50;99809.53;;;7.27;39.18
76732;BME280;65656;51.130;13.658;2023-04-06T10:00:02;99800.41;;;7.71;41.45
76732;BME280;65656;51.130;13.658;2023-04-06T10:04:13;99790.94;;;7.99;40.83
76732;BME280;65656;51.130;13.658;2023-04-06T10:08:24;99792.19;;;8.21;42.30
76732;BME280;65656;51.130;13.658;2023-04-06T10:12:31;99789.34;;;7.35;40.62
76732;BME280;65656;51.130;13.658;2023-04-06T10:16:34;99786.75;;;7.46;40.75
76732;BME280;65656;51.130;13.658;2023-04-06T10:20:39;99790.56;;;7.39;39.04
76732;BME280;65656;51.130;13.658;2023-04-06T10:24:42;99793.59;;;8.05;41.82
76732;BME280;65656;51.130;13.658;2023-04-06T10:28:45;99789.38;;;8.09;37.94
76732;BME280;65656;51.130;13.658;2023-04-06T10:32:48;99781.28;;;8.40;41.59
76732;BME280;65656;51.130;13.658;2023-04-06T10:36:50;99782.13;;;7.97;38.26
76732;BME280;65656;51.130;13.658;2023-04-06T10:40:51;99785.75;;;7.66;40.94
76732;BME280;65656;51.130;13.658;2023-04-06T10:44:53;99784.28;;;7.38;42.95
76732;BME280;65656;51.130;13.658;2023-04-06T10:48:56;99774.16;;;7.45;42.58
76732;BME280;65656;51.130;13.658;2023-04-06T10:52:58;99788.25;;;7.67;42.20
76732;BME280;65656;51.130;13.658;2023-04-06T10:57:00;99770.38;;;7.46;41.28
76732;BME280;65656;51.130;13.658;2023-04-06T11:01:02;99776.94;;;8.14;42.67
76732;BME280;65656;51.130;13.658;2023-04-06T11:05:07;99772.13;;;7.91;42.48
76732;BME280;65656;51.130;13.658;2023-04-06T11:09:08;99770.56;;;7.76;43.71
76732;BME280;65656;51.130;13.658;2023-04-06T11:13:10;99775.22;;;7.69;41.38
76732;BME280;65656;51.130;13.658;2023-04-06T11:17:12;99770.56;;;7.76;41.04
76732;BME280;65656;51.130;13.658;2023-04-06T11:21:15;99760.81;;;8.67;38.01
76732;BME280;65656;51.130;13.658;2023-04-06T11:25:17;99763.03;;;7.97;38.50
76732;BME280;65656;51.130;13.658;2023-04-06T11:29:20;99761.13;;;7.97;36.57
76732;BME280;65656;51.130;13.658;2023-04-06T11:33:22;99759.78;;;7.63;39.17
76732;BME280;65656;51.130;13.658;2023-04-06T11:37:26;99756.22;;;8.06;37.32
76732;BME280;65656;51.130;13.658;2023-04-06T11:41:28;99751.53;;;8.31;38.27
76732;BME280;65656;51.130;13.658;2023-04-06T11:45:39;99748.16;;;8.73;35.96
76732;BME280;65656;51.130;13.658;2023-04-06T11:49:42;99755.66;;;8.59;36.19
76732;BME280;65656;51.130;13.658;2023-04-06T11:53:46;99749.22;;;8.53;38.63
76732;BME280;65656;51.130;13.658;2023-04-06T11:57:47;99748.81;;;8.13;38.71
76732;BME280;65656;51.130;13.658;2023-04-06T12:01:49;99743.66;;;8.60;35.71
76732;BME280;65656;51.130;13.658;2023-04-06T12:05:50;99749.59;;;8.57;36.13
76732;BME280;65656;51.130;13.658;2023-04-06T12:09:53;99736.63;;;8.52;36.81
76732;BME280;65656;51.130;13.658;2023-04-06T12:13:54;99734.22;;;9.34;35.67
76732;BME280;65656;51.130;13.658;2023-04-06T12:17:56;99733.09;;;9.24;35.32
76732;BME280;65656;51.130;13.658;2023-04-06T12:21:57;99737.75;;;8.63;39.61
76732;BME280;65656;51.130;13.658;2023-04-06T12:26:00;99730.91;;;7.99;40.23
76732;BME280;65656;51.130;13.658;2023-04-06T12:30:02;99719.28;;;7.85;42.28
76732;BME280;65656;51.130;13.658;2023-04-06T12:34:04;99714.84;;;7.66;41.09
76732;BME280;65656;51.130;13.658;2023-04-06T12:38:05;99716.66;;;8.33;43.89
76732;BME280;65656;51.130;13.658;2023-04-06T12:42:08;99714.16;;;8.99;39.01
76732;BME280;65656;51.130;13.658;2023-04-06T12:46:11;99705.13;;;9.10;42.36
76732;BME280;65656;51.130;13.658;2023-04-06T12:50:12;99707.84;;;8.68;37.22
76732;BME280;65656;51.130;13.658;2023-04-06T12:54:14;99710.53;;;8.86;37.87
76732;BME280;65656;51.130;13.658;2023-04-06T12:58:17;99709.81;;;9.33;37.00
76732;BME280;65656;51.130;13.658;2023-04-06T13:02:19;99691.88;;;9.48;38.81
76732;BME280;65656;51.130;13.658;2023-04-06T13:06:20;99685.38;;;9.85;34.53
76732;BME280;65656;51.130;13.658;2023-04-06T13:10:22;99679.69;;;14.07;31.19
76732;BME280;65656;51.130;13.658;2023-04-06T13:14:25;99673.78;;;15.23;29.01
76732;BME280;65656;51.130;13.658;2023-04-06T13:18:26;99668.63;;;16.58;27.47
76732;BME280;65656;51.130;13.658;2023-04-06T13:22:28;99673.19;;;13.44;29.15
76732;BME280;65656;51.130;13.658;2023-04-06T13:26:29;99659.72;;;15.35;28.63
76732;BME280;65656;51.130;13.658;2023-04-06T13:30:32;99662.75;;;13.78;31.31
76732;BME280;65656;51.130;13.658;2023-04-06T13:34:33;99648.09;;;16.04;24.25
76732;BME280;65656;51.130;13.658;2023-04-06T13:38:35;99661.06;;;13.40;33.39
76732;BME280;65656;51.130;13.658;2023-04-06T13:42:36;99655.13;;;12.45;31.97
76732;BME280;65656;51.130;13.658;2023-04-06T13:46:39;99649.22;;;15.32;30.68
76732;BME280;65656;51.130;13.658;2023-04-06T13:50:41;99656.06;;;13.31;33.51
76732;BME280;65656;51.130;13.658;2023-04-06T13:54:43;99651.50;;;13.47;32.38
76732;BME280;65656;51.130;13.658;2023-04-06T13:58:44;99646.34;;;12.97;31.90
76732;BME280;65656;51.130;13.658;2023-04-06T14:02:47;99646.81;;;11.79;34.62
76732;BME280;65656;51.130;13.658;2023-04-06T14:06:49;99643.59;;;13.56;28.26
76732;BME280;65656;51.130;13.658;2023-04-06T14:10:50;99632.28;;;14.00;28.46
76732;BME280;65656;51.130;13.658;2023-04-06T14:14:52;99644.53;;;12.32;32.39
76732;BME280;65656;51.130;13.658;2023-04-06T14:18:55;99642.69;;;13.18;30.26
76732;BME280;65656;51.130;13.658;2023-04-06T14:22:59;99634.59;;;13.06;29.71
76732;BME280;65656;51.130;13.658;2023-04-06T14:27:01;99635.16;;;12.76;30.13
76732;BME280;65656;51.130;13.658;2023-04-06T14:31:10;99636.88;;;11.39;32.06
76732;BME280;65656;51.130;13.658;2023-04-06T14:35:13;99637.94;;;11.55;34.88
76732;BME280;65656;51.130;13.658;2023-04-06T14:39:15;99630.50;;;10.72;34.07
76732;BME280;65656;51.130;13.658;2023-04-06T14:43:16;99629.06;;;11.48;33.21
76732;BME280;65656;51.130;13.658;2023-04-06T14:47:18;99630.06;;;9.71;37.20
76732;BME280;65656;51.130;13.658;2023-04-06T14:51:21;99628.50;;;9.05;38.25
76732;BME280;65656;51.130;13.658;2023-04-06T14:55:22;99627.78;;;9.80;35.96
76732;BME280;65656;51.130;13.658;2023-04-06T14:59:24;99628.78;;;8.73;41.17
76732;BME280;65656;51.130;13.658;2023-04-06T15:03:26;99630.44;;;8.44;41.29
76732;BME280;65656;51.130;13.658;2023-04-06T15:07:29;99639.16;;;8.53;42.26
76732;BME280;65656;51.130;13.658;2023-04-06T15:11:31;99635.09;;;8.55;42.28
76732;BME280;65656;51.130;13.658;2023-04-06T15:15:32;99629.69;;;8.37;42.11
76732;BME280;65656;51.130;13.658;2023-04-06T15:19:34;99619.97;;;8.71;37.27
76732;BME280;65656;51.130;13.658;2023-04-06T15:23:37;99629.31;;;8.15;41.03
76732;BME280;65656;51.130;13.658;2023-04-06T15:27:38;99629.19;;;8.10;41.92
76732;BME280;65656;51.130;13.658;2023-04-06T15:31:40;99620.69;;;8.36;38.22
76732;BME280;65656;51.130;13.658;2023-04-06T15:35:42;99620.03;;;8.53;38.71
76732;BME280;65656;51.130;13.658;2023-04-06T15:39:44;99623.63;;;8.17;41.39
76732;BME280;65656;51.130;13.658;2023-04-06T15:43:47;99621.00;;;8.10;38.78
76732;BME280;65656;51.130;13.658;2023-04-06T15:47:49;99614.16;;;8.01;41.87
76732;BME280;65656;51.130;13.658;2023-04-06T15:51:50;99618.56;;;8.20;37.79
76732;BME280;65656;51.130;13.658;2023-04-06T15:55:58;99617.81;;;8.13;40.00
76732;BME280;65656;51.130;13.658;2023-04-06T16:00:01;99623.84;;;8.15;40.30
76732;BME280;65656;51.130;13.658;2023-04-06T16:04:05;99620.25;;;7.85;40.01
76732;BME280;65656;51.130;13.658;2023-04-06T16:08:07;99625.03;;;7.71;43.48
76732;BME280;65656;51.130;13.658;2023-04-06T16:12:10;99623.25;;;7.58;44.42
76732;BME280;65656;51.130;13.658;2023-04-06T16:16:11;99628.88;;;7.63;41.71
76732;BME280;65656;51.130;13.658;2023-04-06T16:20:13;99629.91;;;7.62;39.72
76732;BME280;65656;51.130;13.658;2023-04-06T16:24:14;99624.34;;;7.57;39.24
76732;BME280;65656;51.130;13.658;2023-04-06T16:28:17;99623.69;;;7.37;40.84
76732;BME280;65656;51.130;13.658;2023-04-06T16:32:19;99622.03;;;7.36;39.48
76732;BME280;65656;51.130;13.658;2023-04-06T16:36:21;99619.69;;;7.14;44.09
76732;BME280;65656;51.130;13.658;2023-04-06T16:40:22;99619.22;;;7.24;40.32
76732;BME280;65656;51.130;13.658;2023-04-06T16:44:25;99622.66;;;7.13;42.48
76732;BME280;65656;51.130;13.658;2023-04-06T16:48:27;99613.41;;;7.14;40.93
76732;BME280;65656;51.130;13.658;2023-04-06T16:52:28;99617.66;;;6.85;43.05
76732;BME280;65656;51.130;13.658;2023-04-06T16:56:30;99618.94;;;6.76;42.83
76732;BME280;65656;51.130;13.658;2023-04-06T17:00:35;99622.81;;;6.61;43.93
76732;BME280;65656;51.130;13.658;2023-04-06T17:04:37;99620.63;;;6.45;45.53
76732;BME280;65656;51.130;13.658;2023-04-06T17:08:38;99611.75;;;6.56;43.56
76732;BME280;65656;51.130;13.658;2023-04-06T17:12:40;99617.50;;;6.03;49.28
76732;BME280;65656;51.130;13.658;2023-04-06T17:16:43;99618.03;;;5.61;50.81
76732;BME280;65656;51.130;13.658;2023-04-06T17:20:44;99618.72;;;5.23;53.43
76732;BME280;65656;51.130;13.658;2023-04-06T17:24:46;99618.09;;;4.94;54.61
76732;BME280;65656;51.130;13.658;2023-04-06T17:28:48;99630.63;;;4.69;54.67
76732;BME280;65656;51.130;13.658;2023-04-06T17:32:51;99626.81;;;4.50;55.23
76732;BME280;65656;51.130;13.658;2023-04-06T17:36:52;99630.56;;;4.36;54.91
76732;BME280;65656;51.130;13.658;2023-04-06T17:40:54;99628.41;;;4.18;57.05
76732;BME280;65656;51.130;13.658;2023-04-06T17:44:57;99636.31;;;4.06;57.17
76732;BME280;65656;51.130;13.658;2023-04-06T17:49:00;99640.38;;;3.89;56.50
76732;BME280;65656;51.130;13.658;2023-04-06T17:53:02;99638.28;;;3.84;56.40
76732;BME280;65656;51.130;13.658;2023-04-06T17:57:04;99645.75;;;3.76;56.62
76732;BME280;65656;51.130;13.658;2023-04-06T18:01:06;99646.09;;;3.59;59.16
76732;BME280;65656;51.130;13.658;2023-04-06T18:05:10;99649.69;;;3.39;59.75
76732;BME280;65656;51.130;13.658;2023-04-06T18:09:11;99652.44;;;3.17;59.79
76732;BME280;65656;51.130;13.658;2023-04-06T18:13:13;99651.66;;;3.23;58.42
76732;BME280;65656;51.130;13.658;2023-04-06T18:17:14;99658.66;;;3.11;57.71
76732;BME280;65656;51.130;13.658;2023-04-06T18:21:17;99659.06;;;2.87;58.59
76732;BME280;65656;51.130;13.658;2023-04-06T18:25:19;99662.72;;;2.72;60.18
76732;BME280;65656;51.130;13.658;2023-04-06T18:29:20;99664.09;;;2.68;60.60
76732;BME280;65656;51.130;13.658;2023-04-06T18:33:22;99662.50;;;2.53;61.49
76732;BME280;65656;51.130;13.658;2023-04-06T18:37:25;99664.22;;;2.39;63.60
76732;BME280;65656;51.130;13.658;2023-04-06T18:41:27;99674.63;;;2.20;64.79
76732;BME280;65656;51.130;13.658;2023-04-06T18:45:30;99670.09;;;2.06;64.79
76732;BME280;65656;51.130;13.658;2023-04-06T18:49:32;99677.91;;;2.01;66.78
76732;BME280;65656;51.130;13.658;2023-04-06T18:53:35;99677.16;;;1.92;65.18
76732;BME280;65656;51.130;13.658;2023-04-06T18:57:40;99676.09;;;1.87;65.53
76732;BME280;65656;51.130;13.658;2023-04-06T19:01:41;99678.41;;;1.75;65.72
76732;BME280;65656;51.130;13.658;2023-04-06T19:05:43;99676.19;;;1.64;65.67
76732;BME280;65656;51.130;13.658;2023-04-06T19:09:46;99681.50;;;1.57;65.51
76732;BME280;65656;51.130;13.658;2023-04-06T19:13:47;99676.44;;;1.54;64.95
76732;BME280;65656;51.130;13.658;2023-04-06T19:17:49;99682.97;;;1.45;64.89
76732;BME280;65656;51.130;13.658;2023-04-06T19:21:51;99672.53;;;1.42;66.74
76732;BME280;65656;51.130;13.658;2023-04-06T19:25:54;99680.25;;;1.45;65.12
76732;BME280;65656;51.130;13.658;2023-04-06T19:29:57;99680.91;;;1.47;65.91
76732;BME280;65656;51.130;13.658;2023-04-06T19:33:58;99677.25;;;1.40;63.48
76732;BME280;65656;51.130;13.658;2023-04-06T19:38:00;99677.84;;;1.35;64.18
76732;BME280;65656;51.130;13.658;2023-04-06T19:42:03;99685.91;;;1.21;66.08
76732;BME280;65656;51.130;13.658;2023-04-06T19:46:04;99678.34;;;1.16;68.65
76732;BME280;65656;51.130;13.658;2023-04-06T19:50:06;99681.63;;;1.11;69.90
76732;BME280;65656;51.130;13.658;2023-04-06T19:54:08;99681.88;;;1.02;68.08
76732;BME280;65656;51.130;13.658;2023-04-06T19:58:11;99686.63;;;1.15;68.21
76732;BME280;65656;51.130;13.658;2023-04-06T20:02:12;99687.63;;;0.99;69.19
76732;BME280;65656;51.130;13.658;2023-04-06T20:06:14;99690.00;;;0.79;70.25
76732;BME280;65656;51.130;13.658;2023-04-06T20:10:16;99692.38;;;0.74;69.64
76732;BME280;65656;51.130;13.658;2023-04-06T20:14:19;99688.72;;;0.67;69.87
76732;BME280;65656;51.130;13.658;2023-04-06T20:18:21;99687.03;;;0.66;69.61
76732;BME280;65656;51.130;13.658;2023-04-06T20:22:23;99681.41;;;0.52;68.60
76732;BME280;65656;51.130;13.658;2023-04-06T20:26:24;99687.63;;;0.53;68.72
76732;BME280;65656;51.130;13.658;2023-04-06T20:30:27;99682.38;;;0.60;70.30
76732;BME280;65656;51.130;13.658;2023-04-06T20:34:29;99696.28;;;0.48;68.44
76732;BME280;65656;51.130;13.658;2023-04-06T20:38:30;99689.25;;;0.39;69.85
76732;BME280;65656;51.130;13.658;2023-04-06T20:42:34;99692.34;;;0.28;71.33
76732;BME280;65656;51.130;13.658;2023-04-06T20:46:37;99691.09;;;0.16;70.57
76732;BME280;65656;51.130;13.658;2023-04-06T20:50:38;99681.59;;;0.20;70.70
76732;BME280;65656;51.130;13.658;2023-04-06T20:54:40;99689.00;;;0.26;70.68
76732;BME280;65656;51.130;13.658;2023-04-06T20:58:41;99682.47;;;0.43;68.83
76732;BME280;65656;51.130;13.658;2023-04-06T21:02:44;99680.22;;;0.32;70.18
76732;BME280;65656;51.130;13.658;2023-04-06T21:06:46;99683.28;;;0.21;71.21
76732;BME280;65656;51.130;13.658;2023-04-06T21:10:48;99685.88;;;0.06;70.72
76732;BME280;65656;51.130;13.658;2023-04-06T21:14:49;99683.16;;;0.14;71.82
76732;BME280;65656;51.130;13.658;2023-04-06T21:18:52;99682.31;;;0.14;72.55
76732;BME280;65656;51.130;13.658;2023-04-06T21:22:54;99683.00;;;0.08;69.90